createdAt,value
2019-04-28T00:02:01.353Z,99.90
2019-04-28T00:04:32.148Z,99.90
2019-04-28T00:07:03.178Z,99.90
2019-04-28T00:09:33.407Z,99.90
2019-04-28T00:12:04.033Z,99.90
2019-04-28T00:14:34.481Z,99.90
2019-04-28T00:17:06.320Z,99.90
2019-04-28T00:19:37.678Z,99.90
2019-04-28T00:22:14.151Z,99.90
2019-04-28T00:24:53.490Z,99.90
2019-04-28T00:27:24.024Z,99.90
2019-04-28T00:29:55.159Z,99.90
2019-04-28T00:32:27.137Z,99.90
2019-04-28T00:35:02.368Z,99.90
2019-04-28T00:37:36.545Z,99.90
2019-04-28T00:40:11.118Z,99.90
2019-04-28T00:42:42.587Z,99.90
2019-04-28T00:45:14.026Z,99.90
2019-04-28T00:47:44.673Z,99.90
2019-04-28T00:50:16.161Z,99.90
2019-04-28T00:52:47.179Z,99.90
2019-04-28T00:55:17.915Z,99.90
2019-04-28T00:57:48.598Z,99.90
2019-04-28T01:00:21.301Z,99.90
2019-04-28T01:02:54.423Z,99.90
2019-04-28T01:05:25.303Z,99.90
2019-04-28T01:07:56.519Z,99.90
2019-04-28T01:10:27.619Z,99.90
2019-04-28T01:12:58.748Z,99.90
2019-04-28T01:15:45.004Z,99.90
2019-04-28T01:18:41.250Z,99.90
2019-04-28T01:21:12.458Z,99.90
2019-04-28T01:23:43.750Z,99.90
2019-04-28T01:26:14.071Z,99.90
2019-04-28T01:28:44.627Z,99.90
2019-04-28T01:31:34.398Z,99.90
2019-04-28T01:34:24.023Z,99.90
2019-04-28T01:36:54.441Z,99.90
2019-04-28T01:39:25.503Z,99.90
2019-04-28T01:41:56.133Z,99.90
2019-04-28T01:44:27.342Z,99.90
2019-04-28T01:46:59.651Z,99.90
2019-04-28T01:49:30.596Z,99.90
2019-04-28T01:52:02.215Z,99.90
2019-04-28T01:54:33.573Z,99.90
2019-04-28T01:57:04.307Z,99.90
2019-04-28T01:59:35.809Z,99.90
2019-04-28T02:02:09.946Z,99.90
2019-04-28T02:04:40.463Z,99.90
2019-04-28T02:07:11.228Z,99.90
2019-04-28T02:09:42.917Z,99.90
2019-04-28T02:12:13.445Z,99.90
2019-04-28T02:14:44.346Z,99.90
2019-04-28T02:17:15.538Z,99.90
2019-04-28T02:19:46.894Z,99.90
2019-04-28T02:22:25.923Z,99.90
2019-04-28T02:24:56.556Z,99.90
2019-04-28T02:27:30.067Z,99.90
2019-04-28T02:30:00.457Z,99.90
2019-04-28T02:32:33.895Z,99.90
2019-04-28T02:35:04.040Z,99.90
2019-04-28T02:37:34.143Z,99.90
2019-04-28T02:40:05.666Z,99.90
2019-04-28T02:42:36.453Z,99.90
2019-04-28T02:45:11.330Z,99.90
2019-04-28T02:47:42.293Z,99.90
2019-04-28T02:50:21.071Z,99.90
2019-04-28T02:52:56.118Z,99.90
2019-04-28T02:55:26.719Z,99.90
2019-04-28T02:57:56.847Z,99.90
2019-04-28T03:00:31.409Z,99.90
2019-04-28T03:03:01.648Z,99.90
2019-04-28T03:05:33.528Z,99.90
2019-04-28T03:08:05.124Z,99.90
2019-04-28T03:10:36.472Z,99.90
2019-04-28T03:13:07.630Z,99.90
2019-04-28T03:15:41.208Z,99.90
2019-04-28T03:18:11.659Z,99.90
2019-04-28T03:20:43.517Z,99.90
2019-04-28T03:23:14.868Z,99.90
2019-04-28T03:25:53.304Z,99.90
2019-04-28T03:28:51.355Z,99.90
2019-04-28T03:32:16.080Z,99.90
2019-04-28T03:34:44.784Z,99.90
2019-04-28T03:37:15.559Z,99.90
2019-04-28T03:39:45.938Z,99.90
2019-04-28T03:42:16.857Z,99.90
2019-04-28T03:44:47.818Z,99.90
2019-04-28T03:47:21.178Z,99.90
2019-04-28T03:49:52.676Z,99.90
2019-04-28T03:52:23.521Z,99.90
2019-04-28T03:54:53.991Z,99.90
2019-04-28T03:57:24.797Z,99.90
2019-04-28T03:59:55.532Z,99.90
2019-04-28T04:02:25.591Z,99.90
2019-04-28T04:04:56.808Z,99.90
2019-04-28T04:07:27.744Z,99.90
2019-04-28T04:10:26.158Z,99.90
2019-04-28T04:13:05.271Z,99.90
2019-04-28T04:15:55.138Z,99.90
2019-04-28T04:18:41.334Z,99.90
2019-04-28T04:21:12.501Z,99.90
2019-04-28T04:23:43.452Z,99.90
2019-04-28T04:26:13.982Z,99.90
2019-04-28T04:28:44.914Z,99.90
2019-04-28T04:31:16.077Z,99.90
2019-04-28T04:33:46.951Z,99.90
2019-04-28T04:36:17.373Z,99.90
2019-04-28T04:38:51.223Z,99.90
2019-04-28T04:41:22.505Z,99.90
2019-04-28T04:43:53.858Z,99.90
2019-04-28T04:46:26.169Z,99.90
2019-04-28T04:48:56.562Z,99.90
2019-04-28T04:51:30.094Z,99.90
2019-04-28T04:54:01.384Z,99.90
2019-04-28T04:56:32.848Z,99.90
2019-04-28T04:59:03.816Z,99.90
2019-04-28T05:01:52.575Z,99.90
2019-04-28T05:04:32.480Z,99.90
2019-04-28T05:07:03.676Z,99.90
2019-04-28T05:09:34.415Z,99.90
2019-04-28T05:12:05.565Z,99.90
2019-04-28T05:14:36.289Z,99.90
2019-04-28T05:17:07.659Z,99.90
2019-04-28T05:19:40.154Z,99.90
2019-04-28T05:22:11.676Z,99.90
2019-04-28T05:24:54.484Z,99.90
2019-04-28T05:27:25.881Z,99.90
2019-04-28T05:29:56.868Z,99.90
2019-04-28T05:32:41.588Z,99.90
2019-04-28T05:35:01.196Z,99.90
2019-04-28T05:37:32.200Z,99.90
2019-04-28T05:40:03.274Z,99.90
2019-04-28T05:42:33.675Z,99.90
2019-04-28T05:45:04.415Z,99.90
2019-04-28T05:47:34.462Z,99.90
2019-04-28T05:50:14.482Z,99.90
2019-04-28T05:53:03.857Z,99.90
2019-04-28T05:55:53.854Z,99.90
2019-04-28T05:58:55.315Z,99.90
2019-04-28T06:01:32.406Z,99.90
2019-04-28T06:04:03.340Z,99.90
2019-04-28T06:06:37.378Z,99.90
2019-04-28T06:09:25.390Z,99.90
2019-04-28T06:11:55.653Z,99.90
2019-04-28T06:14:26.369Z,99.90
2019-04-28T06:16:57.311Z,99.90
2019-04-28T06:19:27.606Z,99.90
2019-04-28T06:21:59.608Z,99.90
2019-04-28T06:24:30.753Z,99.90
2019-04-28T06:27:01.662Z,99.90
2019-04-28T06:29:32.240Z,99.90
2019-04-28T06:32:02.375Z,99.90
2019-04-28T06:34:33.099Z,99.90
2019-04-28T06:37:04.042Z,99.90
2019-04-28T06:39:34.052Z,99.90
2019-04-28T06:42:06.737Z,99.90
2019-04-28T06:44:36.935Z,99.90
2019-04-28T06:47:07.229Z,99.90
2019-04-28T06:49:37.937Z,99.90
2019-04-28T06:52:08.867Z,99.90
2019-04-28T06:54:39.551Z,99.90
2019-04-28T06:57:10.112Z,99.90
2019-04-28T06:59:40.835Z,99.90
2019-04-28T07:02:11.841Z,99.90
2019-04-28T07:04:42.719Z,99.90
2019-04-28T07:07:13.796Z,99.90
2019-04-28T07:09:44.248Z,99.90
2019-04-28T07:12:15.265Z,99.90
2019-04-28T07:14:46.087Z,99.90
2019-04-28T07:17:17.023Z,99.90
2019-04-28T07:19:52.783Z,99.90
2019-04-28T07:22:25.796Z,99.90
2019-04-28T07:24:56.673Z,99.90
2019-04-28T07:27:27.621Z,99.90
2019-04-28T07:29:58.979Z,99.90
2019-04-28T07:32:29.721Z,99.90
2019-04-28T07:35:00.439Z,99.90
2019-04-28T07:37:30.723Z,99.90
2019-04-28T07:40:01.644Z,99.90
2019-04-28T07:42:33.491Z,99.90
2019-04-28T07:45:04.360Z,99.90
2019-04-28T07:47:36.657Z,99.90
2019-04-28T07:50:07.123Z,99.90
2019-04-28T07:52:44.411Z,99.90
2019-04-28T07:55:15.533Z,99.90
2019-04-28T07:57:46.657Z,99.90
2019-04-28T08:00:23.392Z,99.90
2019-04-28T08:02:54.121Z,99.90
2019-04-28T08:05:24.860Z,99.90
2019-04-28T08:07:56.211Z,99.90
2019-04-28T08:10:27.166Z,99.90
2019-04-28T08:12:57.249Z,99.90
2019-04-28T08:15:28.429Z,99.90
2019-04-28T08:17:58.757Z,99.90
2019-04-28T08:20:29.573Z,99.90
2019-04-28T08:23:00.237Z,99.90
2019-04-28T08:25:31.114Z,99.90
2019-04-28T08:28:02.321Z,99.90
2019-04-28T08:30:34.495Z,99.90
2019-04-28T08:33:39.440Z,99.90
2019-04-28T08:36:10.130Z,99.90
2019-04-28T08:38:40.866Z,99.90
2019-04-28T08:41:11.858Z,99.90
2019-04-28T08:43:43.226Z,99.90
2019-04-28T08:46:14.246Z,99.90
2019-04-28T08:48:44.894Z,99.90
2019-04-28T08:51:15.846Z,99.90
2019-04-28T08:53:46.528Z,99.90
2019-04-28T08:56:17.315Z,99.90
2019-04-28T08:58:48.671Z,99.90
2019-04-28T09:01:19.261Z,99.90
2019-04-28T09:03:50.434Z,99.90
2019-04-28T09:06:21.696Z,99.90
2019-04-28T09:08:53.612Z,99.90
2019-04-28T09:11:24.814Z,99.90
2019-04-28T09:13:55.264Z,99.90
2019-04-28T09:16:26.080Z,99.90
2019-04-28T09:18:56.652Z,99.90
2019-04-28T09:21:27.154Z,99.90
2019-04-28T09:23:57.970Z,99.90
2019-04-28T09:26:29.040Z,99.90
2019-04-28T09:29:00.196Z,99.90
2019-04-28T09:31:30.748Z,99.90
2019-04-28T09:34:01.258Z,99.90
2019-04-28T09:36:32.177Z,99.90
2019-04-28T09:39:03.155Z,99.90
2019-04-28T09:41:39.698Z,99.90
2019-04-28T09:44:18.540Z,99.90
2019-04-28T09:46:50.317Z,99.90
2019-04-28T09:49:21.251Z,99.90
2019-04-28T09:51:51.931Z,99.90
2019-04-28T09:54:22.481Z,99.90
2019-04-28T09:56:57.026Z,99.90
2019-04-28T09:59:25.451Z,99.90
2019-04-28T10:01:56.166Z,99.90
2019-04-28T10:04:26.911Z,99.90
2019-04-28T10:06:58.059Z,99.90
2019-04-28T10:09:28.596Z,99.90
2019-04-28T10:11:59.442Z,99.90
2019-04-28T10:14:30.187Z,98.90
2019-04-28T10:17:01.423Z,98.90
2019-04-28T10:19:32.697Z,98.70
2019-04-28T10:22:03.558Z,98.30
2019-04-28T10:24:34.165Z,97.40
2019-04-28T10:27:06.283Z,97.60
2019-04-28T10:29:37.371Z,97.30
2019-04-28T10:32:07.842Z,98.30
2019-04-28T10:34:38.025Z,98.70
2019-04-28T10:37:08.978Z,99.20
2019-04-28T10:39:50.981Z,99.90
2019-04-28T10:42:21.338Z,99.90
2019-04-28T10:44:52.095Z,99.40
2019-04-28T10:47:22.775Z,99.90
2019-04-28T10:49:53.674Z,99.90
2019-04-28T10:52:24.871Z,99.90
2019-04-28T10:54:54.977Z,99.90
2019-04-28T10:57:25.948Z,99.90
2019-04-28T10:59:56.884Z,99.90
2019-04-28T11:02:27.012Z,99.90
2019-04-28T11:05:10.250Z,99.90
2019-04-28T11:07:41.107Z,99.90
2019-04-28T11:10:13.728Z,99.90
2019-04-28T11:12:44.662Z,99.90
2019-04-28T11:15:19.652Z,99.90
2019-04-28T11:17:50.748Z,99.90
2019-04-28T11:20:25.180Z,99.90
2019-04-28T11:22:54.517Z,99.90
2019-04-28T11:25:25.561Z,99.90
2019-04-28T11:27:56.168Z,99.90
2019-04-28T11:30:27.590Z,99.90
2019-04-28T11:33:10.688Z,99.90
2019-04-28T11:35:41.417Z,99.90
2019-04-28T11:38:12.297Z,99.90
2019-04-28T11:40:43.077Z,99.90
2019-04-28T11:43:13.970Z,99.90
2019-04-28T11:45:44.995Z,99.90
2019-04-28T11:48:16.138Z,99.90
2019-04-28T11:50:46.414Z,99.90
2019-04-28T11:53:16.936Z,99.90
2019-04-28T11:55:47.954Z,99.90
2019-04-28T11:58:18.484Z,99.90
2019-04-28T12:00:49.830Z,99.90
2019-04-28T12:03:21.191Z,99.90
2019-04-28T12:05:52.108Z,99.90
2019-04-28T12:08:23.279Z,99.90
2019-04-28T12:11:02.236Z,99.90
2019-04-28T12:13:51.414Z,99.90
2019-04-28T12:16:53.234Z,99.90
2019-04-28T12:19:29.430Z,99.90
2019-04-28T12:22:00.054Z,99.90
2019-04-28T12:24:30.376Z,99.90
2019-04-28T12:27:00.866Z,99.90
2019-04-28T12:29:31.390Z,99.90
2019-04-28T12:32:01.571Z,99.90
2019-04-28T12:34:34.960Z,99.90
2019-04-28T12:37:05.959Z,99.90
2019-04-28T12:39:37.061Z,99.90
2019-04-28T12:42:07.994Z,99.90
2019-04-28T12:44:38.538Z,99.90
2019-04-28T12:47:09.266Z,99.90
2019-04-28T12:49:49.893Z,99.90
2019-04-28T12:52:21.202Z,99.90
2019-04-28T12:54:51.937Z,99.90
2019-04-28T12:57:22.364Z,99.90
2019-04-28T13:00:02.419Z,99.90
2019-04-28T13:02:59.991Z,99.90
2019-04-28T13:05:32.987Z,99.90
2019-04-28T13:08:03.927Z,99.90
2019-04-28T13:10:33.739Z,99.90
2019-04-28T13:13:04.791Z,99.90
2019-04-28T13:15:36.759Z,99.90
2019-04-28T13:18:07.693Z,99.90
2019-04-28T13:20:38.644Z,99.90
2019-04-28T13:23:09.520Z,99.90
2019-04-28T13:25:40.735Z,98.00
2019-04-28T13:28:11.275Z,94.00
2019-04-28T13:30:42.008Z,93.10
2019-04-28T13:33:12.899Z,91.60
2019-04-28T13:35:43.293Z,87.20
2019-04-28T13:38:14.638Z,81.20
2019-04-28T13:40:45.296Z,81.70
2019-04-28T13:43:16.518Z,77.90
2019-04-28T13:45:47.663Z,78.90
2019-04-28T13:48:18.616Z,77.80
2019-04-28T13:50:49.555Z,72.80
2019-04-28T13:53:20.023Z,71.30
2019-04-28T13:56:09.483Z,68.60
2019-04-28T13:58:49.619Z,68.80
2019-04-28T14:01:34.491Z,64.80
2019-04-28T14:04:26.939Z,63.60
2019-04-28T14:07:01.563Z,61.10
2019-04-28T14:09:31.827Z,58.70
2019-04-28T14:12:03.045Z,59.10
2019-04-28T14:14:33.998Z,60.40
2019-04-28T14:17:05.403Z,58.50
2019-04-28T14:19:36.745Z,57.30
2019-04-28T14:22:07.856Z,57.40
2019-04-28T14:24:38.845Z,54.90
2019-04-28T14:27:10.142Z,55.30
2019-04-28T14:29:41.036Z,55.20
2019-04-28T14:32:11.713Z,54.10
2019-04-28T14:34:43.173Z,52.80
2019-04-28T14:37:14.314Z,53.50
2019-04-28T14:39:44.608Z,51.50
2019-04-28T14:42:15.452Z,51.70
2019-04-28T14:44:46.690Z,51.20
2019-04-28T14:47:17.630Z,50.20
2019-04-28T14:49:47.698Z,50.90
2019-04-28T14:52:18.284Z,51.80
2019-04-28T14:54:48.826Z,51.70
2019-04-28T14:57:19.822Z,51.50
2019-04-28T14:59:49.951Z,52.70
2019-04-28T15:02:34.516Z,54.90
2019-04-28T15:05:18.764Z,55.20
2019-04-28T15:07:59.222Z,54.30
2019-04-28T15:10:55.173Z,53.50
2019-04-28T15:13:26.805Z,55.60
2019-04-28T15:15:58.162Z,56.40
2019-04-28T15:18:29.270Z,56.10
2019-04-28T15:20:59.762Z,56.00
2019-04-28T15:23:31.714Z,55.40
2019-04-28T15:26:01.862Z,55.20
2019-04-28T15:28:32.715Z,56.50
2019-04-28T15:31:03.961Z,57.80
2019-04-28T15:33:35.290Z,57.60
2019-04-28T15:36:06.628Z,59.50
2019-04-28T15:38:37.518Z,59.70
2019-04-28T15:41:20.960Z,60.00
2019-04-28T15:43:40.218Z,60.70
2019-04-28T15:46:11.223Z,60.00
2019-04-28T15:48:41.654Z,61.50
2019-04-28T15:51:12.308Z,63.10
2019-04-28T15:53:44.685Z,61.10
2019-04-28T15:56:29.270Z,63.10
2019-04-28T15:59:00.080Z,65.10
2019-04-28T16:01:30.111Z,66.50
2019-04-28T16:04:01.150Z,66.80
2019-04-28T16:06:32.125Z,68.70
2019-04-28T16:09:02.704Z,69.50
2019-04-28T16:11:35.423Z,71.10
2019-04-28T16:14:06.707Z,71.80
2019-04-28T16:16:37.258Z,72.00
2019-04-28T16:19:08.452Z,72.30
2019-04-28T16:21:39.338Z,71.40
2019-04-28T16:24:10.952Z,72.70
2019-04-28T16:26:41.491Z,73.00
2019-04-28T16:29:12.642Z,72.70
2019-04-28T16:31:43.987Z,74.10
2019-04-28T16:34:15.136Z,73.80
2019-04-28T16:36:45.460Z,75.90
2019-04-28T16:39:15.921Z,74.70
2019-04-28T16:41:50.514Z,75.50
2019-04-28T16:44:30.599Z,79.10
2019-04-28T16:47:01.167Z,80.30
2019-04-28T16:49:31.575Z,79.40
2019-04-28T16:52:02.589Z,81.00
2019-04-28T16:54:33.128Z,81.80
2019-04-28T16:57:12.675Z,81.80
2019-04-28T16:59:57.369Z,78.30
2019-04-28T17:02:37.217Z,78.00
2019-04-28T17:05:10.492Z,79.10
2019-04-28T17:07:52.033Z,79.80
2019-04-28T17:10:14.837Z,82.90
2019-04-28T17:12:45.367Z,83.50
2019-04-28T17:15:16.257Z,83.40
2019-04-28T17:17:47.268Z,84.70
2019-04-28T17:20:17.989Z,86.50
2019-04-28T17:22:48.891Z,86.60
2019-04-28T17:25:20.087Z,87.20
2019-04-28T17:27:50.979Z,88.60
2019-04-28T17:30:24.697Z,88.90
2019-04-28T17:32:55.315Z,89.50
2019-04-28T17:35:25.588Z,87.90
2019-04-28T17:38:06.544Z,86.80
2019-04-28T17:40:30.663Z,88.10
2019-04-28T17:43:01.635Z,89.00
2019-04-28T17:45:31.930Z,90.30
2019-04-28T17:48:10.049Z,91.40
2019-04-28T17:50:40.330Z,92.50
2019-04-28T17:53:12.545Z,93.40
2019-04-28T17:55:42.811Z,93.50
2019-04-28T17:58:14.236Z,93.90
2019-04-28T18:01:03.897Z,94.20
2019-04-28T18:03:44.790Z,94.90
2019-04-28T18:06:18.541Z,95.70
2019-04-28T18:08:48.873Z,96.50
2019-04-28T18:11:19.570Z,97.70
2019-04-28T18:13:50.157Z,98.60
2019-04-28T18:16:33.318Z,99.90
2019-04-28T18:19:06.998Z,99.90
2019-04-28T18:21:38.031Z,99.90
2019-04-28T18:24:08.726Z,99.90
2019-04-28T18:26:38.980Z,99.90
2019-04-28T18:29:10.146Z,99.90
2019-04-28T18:31:59.384Z,99.90
2019-04-28T18:34:38.910Z,99.90
2019-04-28T18:37:30.942Z,99.90
2019-04-28T18:40:27.900Z,99.90
2019-04-28T18:43:18.907Z,99.90
2019-04-28T18:45:50.886Z,99.90
2019-04-28T18:48:21.418Z,99.90
2019-04-28T18:50:52.366Z,99.90
2019-04-28T18:53:23.108Z,99.90
2019-04-28T18:55:54.046Z,99.90
2019-04-28T18:58:25.398Z,99.90
2019-04-28T19:01:09.866Z,99.90
2019-04-28T19:03:40.988Z,99.90
2019-04-28T19:06:11.562Z,99.90
2019-04-28T19:08:50.358Z,99.90
2019-04-28T19:11:26.492Z,99.90
2019-04-28T19:14:01.348Z,99.90
2019-04-28T19:17:00.573Z,99.90
2019-04-28T19:19:32.335Z,99.90
2019-04-28T19:22:02.912Z,99.90
2019-04-28T19:24:34.225Z,99.90
2019-04-28T19:27:04.964Z,99.90
2019-04-28T19:29:36.043Z,99.90
2019-04-28T19:32:07.462Z,99.90
2019-04-28T19:34:38.216Z,99.90
2019-04-28T19:37:09.567Z,99.90
2019-04-28T19:39:40.957Z,99.90
2019-04-28T19:42:12.025Z,99.90
2019-04-28T19:44:42.594Z,99.90
2019-04-28T19:47:14.151Z,99.90
2019-04-28T19:49:45.123Z,99.90
2019-04-28T19:52:16.059Z,99.90
2019-04-28T19:55:03.792Z,99.90
2019-04-28T19:57:42.241Z,99.90
2019-04-28T20:00:21.967Z,99.90
2019-04-28T20:02:54.219Z,99.90
2019-04-28T20:05:25.365Z,99.90
2019-04-28T20:07:56.863Z,99.90
2019-04-28T20:10:28.079Z,99.90
2019-04-28T20:12:59.427Z,99.90
2019-04-28T20:15:30.103Z,99.90
2019-04-28T20:18:00.795Z,99.90
2019-04-28T20:20:31.849Z,99.90
2019-04-28T20:23:02.538Z,99.90
2019-04-28T20:25:34.963Z,99.90
2019-04-28T20:28:05.178Z,99.90
2019-04-28T20:30:35.760Z,99.90
2019-04-28T20:33:07.562Z,99.90
2019-04-28T20:35:43.668Z,99.90
2019-04-28T20:38:28.110Z,99.90
2019-04-28T20:41:13.811Z,99.90
2019-04-28T20:43:44.294Z,99.90
2019-04-28T20:46:15.220Z,99.90
2019-04-28T20:48:46.645Z,99.90
2019-04-28T20:51:17.392Z,99.90
2019-04-28T20:53:49.337Z,99.90
2019-04-28T20:56:20.492Z,99.90
2019-04-28T20:58:51.215Z,99.90
2019-04-28T21:01:23.403Z,99.90
2019-04-28T21:03:54.662Z,99.90
2019-04-28T21:06:25.487Z,99.90
2019-04-28T21:08:55.561Z,99.90
2019-04-28T21:11:26.339Z,99.90
2019-04-28T21:13:57.172Z,99.90
2019-04-28T21:16:28.030Z,99.90
2019-04-28T21:18:58.974Z,99.90
2019-04-28T21:21:29.713Z,99.90
2019-04-28T21:24:00.607Z,99.90
2019-04-28T21:26:31.401Z,99.90
2019-04-28T21:29:02.342Z,99.90
2019-04-28T21:31:33.144Z,99.90
2019-04-28T21:34:04.025Z,99.90
2019-04-28T21:36:34.932Z,99.90
2019-04-28T21:39:09.346Z,99.90
2019-04-28T21:41:41.154Z,99.90
2019-04-28T21:44:21.473Z,99.90
2019-04-28T21:46:57.173Z,99.90
2019-04-28T21:49:31.797Z,99.90
2019-04-28T21:52:02.948Z,99.90
2019-04-28T21:54:33.668Z,99.90
2019-04-28T21:57:04.828Z,99.90
2019-04-28T21:59:35.987Z,99.90
2019-04-28T22:02:07.118Z,99.90
2019-04-28T22:04:38.272Z,99.90
2019-04-28T22:07:09.422Z,99.90
2019-04-28T22:09:40.190Z,99.90
2019-04-28T22:12:12.746Z,99.90
2019-04-28T22:14:43.226Z,99.90
2019-04-28T22:17:14.222Z,99.90
2019-04-28T22:19:44.918Z,99.90
2019-04-28T22:22:15.700Z,99.90
2019-04-28T22:24:56.266Z,99.90
2019-04-28T22:27:29.762Z,99.90
2019-04-28T22:30:00.410Z,99.90
2019-04-28T22:32:31.112Z,99.90
2019-04-28T22:35:02.300Z,99.90
2019-04-28T22:37:33.442Z,99.90
2019-04-28T22:40:05.004Z,99.90
2019-04-28T22:42:35.742Z,99.90
2019-04-28T22:45:07.907Z,99.90
2019-04-28T22:47:39.048Z,99.90
2019-04-28T22:50:29.055Z,99.90
2019-04-28T22:52:59.779Z,99.90
2019-04-28T22:55:32.778Z,99.90
2019-04-28T22:58:13.539Z,99.90
2019-04-28T23:00:52.471Z,99.90
2019-04-28T23:03:38.162Z,99.90
2019-04-28T23:06:10.439Z,99.90
2019-04-28T23:08:41.058Z,99.90
2019-04-28T23:11:11.219Z,99.90
2019-04-28T23:13:42.807Z,99.90
2019-04-28T23:16:14.113Z,99.90
2019-04-28T23:18:44.895Z,99.90
2019-04-28T23:21:34.531Z,99.90
2019-04-28T23:24:05.779Z,99.90
2019-04-28T23:26:36.724Z,99.90
2019-04-28T23:29:06.771Z,99.90
2019-04-28T23:31:37.792Z,99.90
2019-04-28T23:34:08.740Z,99.90
2019-04-28T23:36:39.681Z,99.90
2019-04-28T23:39:11.323Z,99.90
2019-04-28T23:41:48.077Z,99.90
2019-04-28T23:44:18.862Z,99.90
2019-04-28T23:46:56.329Z,99.90
2019-04-28T23:49:29.475Z,99.90
2019-04-28T23:52:21.805Z,99.90
2019-04-28T23:54:53.572Z,99.90
2019-04-28T23:57:23.858Z,99.90
2019-04-28T23:59:54.022Z,99.90
